Time;durP1;ratioP1;P1;durP2;ratioP2;P2;SDS_P1;SDS_P2;PMS_P1;PMS_P2;Temp;Humidity;BMP_temperature;BMP_pressure;BME280_temperature;BME280_humidity;BME280_pressure;Samples;Min_cycle;Max_cycle;Signal;HPM_P1;HPM_P2
2021/06/07 00:00:32;;;;;;;13.97;4.60;;;;;;;;;;10348924;28;20450;-66
2021/06/07 00:05:30;;;;;;;8.88;5.95;;;;;;;;;;10350480;28;20067;-66
2021/06/07 00:10:28;;;;;;;11.98;7.53;;;;;;;;;;10349846;28;20029;-65
2021/06/07 00:15:26;;;;;;;11.33;7.43;;;;;;;;;;10343234;28;20024;-66
2021/06/07 00:20:44;;;;;;;5.18;4.13;;;;;;;;;;10345933;28;20126;-66
2021/06/07 00:25:43;;;;;;;11.15;5.93;;;;;;;;;;10353156;28;20075;-65
2021/06/07 00:30:40;;;;;;;15.23;7.22;;;;;;;;;;10329462;28;20033;-66
2021/06/07 00:35:37;;;;;;;12.73;7.43;;;;;;;;;;10342228;28;20053;-65
2021/06/07 00:40:35;;;;;;;8.10;5.20;;;;;;;;;;10343592;28;20033;-66
2021/06/07 00:45:34;;;;;;;9.38;6.35;;;;;;;;;;10336107;28;20039;-66
2021/06/07 00:50:35;;;;;;;15.80;7.63;;;;;;;;;;10339478;28;20037;-66
2021/06/07 00:55:38;;;;;;;12.88;8.43;;;;;;;;;;10318678;28;20040;-66
2021/06/07 01:00:36;;;;;;;14.77;8.25;;;;;;;;;;10354152;28;20044;-66
2021/06/07 01:05:34;;;;;;;9.07;5.28;;;;;;;;;;10336910;28;20261;-65
2021/06/07 01:10:32;;;;;;;10.63;7.28;;;;;;;;;;10339144;28;20025;-65
2021/06/07 01:15:30;;;;;;;11.93;8.45;;;;;;;;;;10355061;28;20033;-65
2021/06/07 01:20:27;;;;;;;10.77;6.03;;;;;;;;;;10347097;28;20041;-65
2021/06/07 01:25:27;;;;;;;16.50;9.00;;;;;;;;;;10323017;28;20087;-66
2021/06/07 01:30:26;;;;;;;12.00;8.27;;;;;;;;;;10349292;28;20044;-65
2021/06/07 01:35:24;;;;;;;11.68;8.25;;;;;;;;;;10351697;28;20037;-66
2021/06/07 01:40:26;;;;;;;15.27;9.63;;;;;;;;;;10351560;28;20102;-65
2021/06/07 01:45:24;;;;;;;11.13;7.78;;;;;;;;;;10331978;28;20052;-66
2021/06/07 01:50:21;;;;;;;20.08;9.77;;;;;;;;;;10331294;28;20037;-65
2021/06/07 01:55:24;;;;;;;15.57;9.27;;;;;;;;;;10344527;28;20112;-65
2021/06/07 02:00:21;;;;;;;10.50;5.22;;;;;;;;;;10332886;28;20041;-66
2021/06/07 02:05:21;;;;;;;16.17;10.10;;;;;;;;;;10340142;28;20115;-65
2021/06/07 02:10:20;;;;;;;14.48;7.70;;;;;;;;;;10337615;28;20017;-66
2021/06/07 02:15:18;;;;;;;20.73;9.25;;;;;;;;;;10336233;28;20017;-66
2021/06/07 02:20:19;;;;;;;18.93;8.67;;;;;;;;;;10339549;28;20094;-65
2021/06/07 02:25:17;;;;;;;12.10;6.93;;;;;;;;;;10354478;28;20291;-65
2021/06/07 02:30:16;;;;;;;15.73;7.15;;;;;;;;;;10342879;28;20043;-67
2021/06/07 02:35:15;;;;;;;8.40;4.45;;;;;;;;;;10318160;28;20383;-65
2021/06/07 02:40:14;;;;;;;15.32;8.02;;;;;;;;;;10341595;28;20029;-65
2021/06/07 02:45:13;;;;;;;18.63;8.95;;;;;;;;;;10336689;28;20025;-66
2021/06/07 02:50:12;;;;;;;10.80;7.63;;;;;;;;;;10323653;28;20080;-66
2021/06/07 02:55:10;;;;;;;10.52;5.43;;;;;;;;;;10340789;28;20025;-65
2021/06/07 03:00:08;;;;;;;6.80;3.73;;;;;;;;;;10318106;28;20033;-65
2021/06/07 03:05:06;;;;;;;12.55;5.63;;;;;;;;;;10336049;28;20013;-66
2021/06/07 03:10:05;;;;;;;11.02;7.38;;;;;;;;;;10314569;28;20044;-65
2021/06/07 03:15:06;;;;;;;15.38;10.07;;;;;;;;;;10342520;28;20041;-66
2021/06/07 03:20:05;;;;;;;13.07;8.23;;;;;;;;;;10341956;28;20055;-66
2021/06/07 03:25:04;;;;;;;19.88;12.93;;;;;;;;;;10350161;28;20072;-65
2021/06/07 03:30:01;;;;;;;;;;;;;;;;;;10349998;28;20037;-65
2021/06/07 03:34:58;;;;;;;11.60;6.50;;;;;;;;;;10322688;28;19920;-66
2021/06/07 03:39:56;;;;;;;15.87;9.23;;;;;;;;;;10330322;28;20183;-67
2021/06/07 03:44:53;;;;;;;19.07;10.50;;;;;;;;;;10347372;28;20037;-66
2021/06/07 03:49:51;;;;;;;15.87;10.77;;;;;;;;;;10347069;28;20080;-65
2021/06/07 03:54:48;;;;;;;21.57;13.13;;;;;;;;;;10328046;28;20116;-65
2021/06/07 03:59:46;;;;;;;15.73;9.70;;;;;;;;;;10343078;28;20045;-65
2021/06/07 04:04:43;;;;;;;12.90;6.10;;;;;;;;;;10327168;28;20395;-65
2021/06/07 04:09:42;;;;;;;21.90;13.73;;;;;;;;;;10317511;28;20129;-66
2021/06/07 04:14:39;;;;;;;15.50;8.20;;;;;;;;;;10308338;28;20491;-65
2021/06/07 04:19:37;;;;;;;17.93;11.57;;;;;;;;;;10326254;28;20443;-65
2021/06/07 04:24:34;;;;;;;15.30;10.87;;;;;;;;;;10334698;28;20037;-65
2021/06/07 04:29:32;;;;;;;21.97;12.90;;;;;;;;;;10343581;28;20048;-66
2021/06/07 04:34:29;;;;;;;17.42;9.90;;;;;;;;;;10319974;28;20033;-65
2021/06/07 04:39:27;;;;;;;20.80;12.93;;;;;;;;;;10320237;28;20103;-65
2021/06/07 04:44:24;;;;;;;19.00;12.70;;;;;;;;;;10332898;28;20045;-66
2021/06/07 04:49:22;;;;;;;23.67;12.37;;;;;;;;;;10340283;28;20299;-65
2021/06/07 04:54:19;;;;;;;18.03;11.43;;;;;;;;;;10332659;28;20037;-65
2021/06/07 04:59:17;;;;;;;7.67;3.37;;;;;;;;;;10301898;28;20120;-65
2021/06/07 05:04:14;;;;;;;8.60;2.60;;;;;;;;;;10329032;28;20035;-65
2021/06/07 05:09:12;;;;;;;4.73;3.13;;;;;;;;;;10332450;28;20037;-67
2021/06/07 05:14:09;;;;;;;5.50;3.17;;;;;;;;;;10337595;28;20029;-65
2021/06/07 05:19:06;;;;;;;11.77;3.97;;;;;;;;;;10339255;28;20036;-65
2021/06/07 05:24:04;;;;;;;2.60;1.97;;;;;;;;;;10332615;28;20118;-65
2021/06/07 05:29:02;;;;;;;5.70;1.85;;;;;;;;;;10330567;28;20422;-66
2021/06/07 05:33:59;;;;;;;4.80;2.60;;;;;;;;;;10335475;28;20030;-66
2021/06/07 05:38:57;;;;;;;3.93;3.40;;;;;;;;;;10336977;28;20045;-65
2021/06/07 05:43:54;;;;;;;2.47;2.23;;;;;;;;;;10325384;28;20028;-66
2021/06/07 05:48:52;;;;;;;7.30;2.60;;;;;;;;;;10335669;28;20025;-65
2021/06/07 05:53:49;;;;;;;5.72;3.15;;;;;;;;;;10334364;28;20036;-65
2021/06/07 05:58:47;;;;;;;3.33;1.73;;;;;;;;;;10329482;28;20052;-66
2021/06/07 06:03:44;;;;;;;4.13;2.33;;;;;;;;;;10316972;28;20071;-65
2021/06/07 06:08:42;;;;;;;12.27;3.50;;;;;;;;;;10331806;28;20041;-66
2021/06/07 06:13:39;;;;;;;6.33;4.47;;;;;;;;;;10332235;28;20501;-65
2021/06/07 06:18:38;;;;;;;4.10;1.97;;;;;;;;;;10323025;28;20417;-65
2021/06/07 06:23:35;;;;;;;2.35;1.15;;;;;;;;;;10336002;28;20044;-65
2021/06/07 06:28:34;;;;;;;5.13;2.20;;;;;;;;;;10336953;28;20098;-66
2021/06/07 06:33:33;;;;;;;3.00;2.20;;;;;;;;;;10342657;28;20218;-65
2021/06/07 06:38:30;;;;;;;3.63;2.22;;;;;;;;;;10335630;28;20044;-65
2021/06/07 06:43:28;;;;;;;5.63;3.10;;;;;;;;;;10323634;28;20522;-65
2021/06/07 06:48:26;;;;;;;7.50;2.33;;;;;;;;;;10337111;28;20566;-66
2021/06/07 06:53:24;;;;;;;8.50;3.05;;;;;;;;;;10327325;28;20156;-67
2021/06/07 06:58:22;;;;;;;2.40;2.00;;;;;;;;;;10327778;28;20124;-66
2021/06/07 07:03:20;;;;;;;1.45;1.13;;;;;;;;;;10326756;28;20587;-62
2021/06/07 07:08:19;;;;;;;3.03;2.13;;;;;;;;;;10333806;28;20150;-62
2021/06/07 07:13:17;;;;;;;2.80;2.10;;;;;;;;;;10328160;28;20041;-62
2021/06/07 07:18:14;;;;;;;2.20;2.00;;;;;;;;;;10329971;28;20237;-62
2021/06/07 07:23:12;;;;;;;5.37;1.93;;;;;;;;;;10316569;28;20032;-62
2021/06/07 07:28:10;;;;;;;3.67;1.83;;;;;;;;;;10317031;28;20036;-62
2021/06/07 07:33:07;;;;;;;2.80;1.60;;;;;;;;;;10329299;28;20510;-62
2021/06/07 07:38:05;;;;;;;2.03;1.80;;;;;;;;;;10333367;28;20140;-62
2021/06/07 07:43:03;;;;;;;5.43;1.98;;;;;;;;;;10331510;28;20511;-62
2021/06/07 07:48:01;;;;;;;4.73;2.00;;;;;;;;;;10332772;28;20045;-62
2021/06/07 07:52:59;;;;;;;3.85;1.70;;;;;;;;;;10326836;28;20040;-62
2021/06/07 07:57:57;;;;;;;3.45;1.60;;;;;;;;;;10328081;28;20044;-62
2021/06/07 08:02:55;;;;;;;3.05;1.05;;;;;;;;;;10341589;28;20132;-62
2021/06/07 08:07:53;;;;;;;1.45;1.35;;;;;;;;;;10331947;28;20203;-62
2021/06/07 08:12:50;;;;;;;1.55;1.20;;;;;;;;;;10337246;28;20084;-62
2021/06/07 08:17:48;;;;;;;4.57;3.23;;;;;;;;;;10333107;28;20040;-62
2021/06/07 08:22:46;;;;;;;1.83;1.20;;;;;;;;;;10333455;28;20475;-63
2021/06/07 08:27:43;;;;;;;;;;;;;;;;;;10336661;28;20033;-62
2021/06/07 08:32:41;;;;;;;2.28;1.38;;;;;;;;;;10340339;28;19927;-62
2021/06/07 08:37:39;;;;;;;2.00;1.25;;;;;;;;;;10341855;28;20053;-62
2021/06/07 08:42:42;;;;;;;4.77;2.20;;;;;;;;;;10331436;28;20044;-62
2021/06/07 08:47:40;;;;;;;2.78;1.40;;;;;;;;;;10337753;28;20580;-63
2021/06/07 08:52:43;;;;;;;3.97;2.38;;;;;;;;;;10332977;28;20041;-62
2021/06/07 08:57:42;;;;;;;6.38;3.67;;;;;;;;;;10339523;28;20072;-62
2021/06/07 09:02:40;;;;;;;6.75;4.28;;;;;;;;;;10334737;28;20033;-62
2021/06/07 09:07:50;;;;;;;9.07;4.50;;;;;;;;;;10334598;28;20499;-62
2021/06/07 09:12:50;;;;;;;3.63;2.05;;;;;;;;;;10339141;28;20044;-62
2021/06/07 09:17:48;;;;;;;7.30;2.60;;;;;;;;;;10338837;28;20029;-62
2021/06/07 09:22:45;;;;;;;;;;;;;;;;;;10313763;28;20044;-62
2021/06/07 09:28:01;;;;;;;4.90;2.55;;;;;;;;;;10330900;28;19919;-65
2021/06/07 09:33:19;;;;;;;6.20;2.28;;;;;;;;;;10332647;28;20948;-65
2021/06/07 09:38:17;;;;;;;13.55;2.72;;;;;;;;;;10335909;28;20053;-65
2021/06/07 09:43:14;;;;;;;;;;;;;;;;;;10316572;28;20094;-65
2021/06/07 09:48:13;;;;;;;2.05;1.55;;;;;;;;;;10335104;28;20383;-66
2021/06/07 09:53:11;;;;;;;5.85;3.17;;;;;;;;;;10335430;28;20640;-67
2021/06/07 09:58:11;;;;;;;5.30;2.72;;;;;;;;;;10330754;28;20032;-65
2021/06/07 10:03:08;;;;;;;;;;;;;;;;;;10328318;28;20029;-65
2021/06/07 10:08:05;;;;;;;6.70;3.23;;;;;;;;;;10332050;28;20374;-63
2021/06/07 10:13:04;;;;;;;4.55;2.85;;;;;;;;;;10333790;28;20090;-62
2021/06/07 10:18:03;;;;;;;2.03;1.23;;;;;;;;;;10322384;28;20570;-63
2021/06/07 10:23:01;;;;;;;1.17;0.95;;;;;;;;;;10330518;28;20088;-63
2021/06/07 10:27:58;;;;;;;;;;;;;;;;;;10325344;28;20067;-62
2021/06/07 10:32:55;;;;;;;5.28;2.55;;;;;;;;;;10338701;28;20559;-62
2021/06/07 10:37:57;;;;;;;5.47;1.42;;;;;;;;;;10338754;28;20368;-62
2021/06/07 10:43:04;;;;;;;1.08;0.52;;;;;;;;;;10332838;28;20483;-62
2021/06/07 10:48:02;;;;;;;2.47;1.30;;;;;;;;;;10329315;28;20036;-62
2021/06/07 10:53:02;;;;;;;8.60;3.60;;;;;;;;;;10325766;28;20036;-62
2021/06/07 10:58:12;;;;;;;5.03;2.28;;;;;;;;;;10330943;28;20380;-62
2021/06/07 11:03:16;;;;;;;5.43;2.88;;;;;;;;;;10330609;28;20123;-62
2021/06/07 11:08:17;;;;;;;6.78;2.97;;;;;;;;;;10321659;28;20487;-62
2021/06/07 11:13:16;;;;;;;6.03;2.47;;;;;;;;;;10313524;28;20030;-62
2021/06/07 11:18:18;;;;;;;4.47;2.13;;;;;;;;;;10299772;28;20078;-62
2021/06/07 11:23:17;;;;;;;5.63;2.45;;;;;;;;;;10320541;28;20047;-62
2021/06/07 11:28:26;;;;;;;4.78;2.20;;;;;;;;;;10329309;28;20106;-62
2021/06/07 11:33:24;;;;;;;5.78;1.67;;;;;;;;;;10336234;28;20103;-62
2021/06/07 11:38:32;;;;;;;1.95;1.38;;;;;;;;;;10337604;28;20033;-62
2021/06/07 11:43:45;;;;;;;5.28;1.52;;;;;;;;;;10333231;28;20043;-62
2021/06/07 11:49:01;;;;;;;2.83;1.52;;;;;;;;;;10322957;28;20044;-61
2021/06/07 11:53:58;;;;;;;5.10;1.55;;;;;;;;;;10333354;28;20110;-62
2021/06/07 11:58:56;;;;;;;0.95;0.70;;;;;;;;;;10334570;28;20182;-62
2021/06/07 12:03:53;;;;;;;5.60;1.80;;;;;;;;;;10341104;28;20057;-62
2021/06/07 12:08:51;;;;;;;1.60;1.07;;;;;;;;;;10333374;28;20060;-62
2021/06/07 12:13:48;;;;;;;1.20;0.67;;;;;;;;;;10337473;28;20646;-62
2021/06/07 12:18:47;;;;;;;5.63;2.08;;;;;;;;;;10312734;28;20285;-62
2021/06/07 12:23:52;;;;;;;4.00;1.60;;;;;;;;;;10337689;28;20037;-62
2021/06/07 12:28:49;;;;;;;4.20;1.52;;;;;;;;;;10322780;28;20033;-62
2021/06/07 12:33:47;;;;;;;2.40;1.40;;;;;;;;;;10339775;28;20045;-62
2021/06/07 12:38:44;;;;;;;2.70;1.37;;;;;;;;;;10328404;28;20291;-62
2021/06/07 12:43:42;;;;;;;0.93;0.83;;;;;;;;;;10338565;28;20291;-63
2021/06/07 12:48:41;;;;;;;3.60;0.98;;;;;;;;;;10328363;28;20391;-61
2021/06/07 12:53:52;;;;;;;5.30;1.52;;;;;;;;;;10328292;28;20037;-63
2021/06/07 12:58:57;;;;;;;2.97;0.80;;;;;;;;;;10340074;28;20566;-62
2021/06/07 13:03:56;;;;;;;5.30;0.77;;;;;;;;;;10334493;28;20500;-62
2021/06/07 13:08:54;;;;;;;2.75;1.30;;;;;;;;;;10339475;28;20049;-62
2021/06/07 13:13:53;;;;;;;2.92;1.30;;;;;;;;;;10324960;28;20357;-62
2021/06/07 13:19:00;;;;;;;4.00;1.42;;;;;;;;;;10340844;28;20044;-62
2021/06/07 13:23:58;;;;;;;1.60;0.98;;;;;;;;;;10331820;28;20387;-62
2021/06/07 13:29:15;;;;;;;5.25;1.63;;;;;;;;;;10330230;28;20041;-62
2021/06/07 13:34:14;;;;;;;2.40;0.90;;;;;;;;;;10334489;28;20041;-62
2021/06/07 13:39:11;;;;;;;2.55;0.93;;;;;;;;;;10343150;28;20029;-62
2021/06/07 13:44:09;;;;;;;4.27;1.30;;;;;;;;;;10329333;28;20496;-61
2021/06/07 13:49:13;;;;;;;6.43;1.50;;;;;;;;;;10313632;28;20280;-62
2021/06/07 13:54:11;;;;;;;4.57;1.85;;;;;;;;;;10326824;28;20371;-62
2021/06/07 13:59:21;;;;;;;3.28;1.58;;;;;;;;;;10326109;28;20051;-61
2021/06/07 14:04:18;;;;;;;4.22;1.77;;;;;;;;;;10314017;28;20037;-62
2021/06/07 14:09:16;;;;;;;2.37;1.40;;;;;;;;;;10334267;28;20037;-62
2021/06/07 14:14:15;;;;;;;3.03;1.10;;;;;;;;;;10306524;28;20627;-62
2021/06/07 14:19:15;;;;;;;4.78;1.70;;;;;;;;;;10339780;28;20118;-61
2021/06/07 14:29:29;;;;;;;6.18;1.73;;;;;;;;;;10342807;28;20498;-62
2021/06/07 14:34:27;;;;;;;2.55;1.30;;;;;;;;;;10322859;28;20061;-62
2021/06/07 14:39:24;;;;;;;3.70;1.43;;;;;;;;;;10334049;28;20348;-62
2021/06/07 14:44:22;;;;;;;3.30;1.33;;;;;;;;;;10342358;28;20206;-62
2021/06/07 14:49:19;;;;;;;3.53;1.70;;;;;;;;;;10304902;28;20361;-62
2021/06/07 14:54:21;;;;;;;1.02;0.68;;;;;;;;;;10332848;28;20025;-62
2021/06/07 14:59:18;;;;;;;5.10;1.88;;;;;;;;;;10334748;28;20033;-62
2021/06/07 15:04:16;;;;;;;2.23;1.43;;;;;;;;;;10336703;28;20033;-62
2021/06/07 15:09:13;;;;;;;2.92;0.90;;;;;;;;;;10323294;28;20766;-62
2021/06/07 15:14:12;;;;;;;2.97;0.57;;;;;;;;;;10342035;28;20040;-62
2021/06/07 15:19:10;;;;;;;1.83;1.13;;;;;;;;;;10339444;28;20299;-62
2021/06/07 15:24:07;;;;;;;2.47;0.45;;;;;;;;;;10335281;28;20053;-62
2021/06/07 15:29:05;;;;;;;2.78;1.00;;;;;;;;;;10345917;28;20042;-62
2021/06/07 15:34:02;;;;;;;1.50;0.77;;;;;;;;;;10332214;28;20648;-62
2021/06/07 15:39:00;;;;;;;1.53;0.80;;;;;;;;;;10330671;28;20337;-62
2021/06/07 15:43:57;;;;;;;4.10;1.00;;;;;;;;;;10339806;28;20402;-62
2021/06/07 15:48:55;;;;;;;3.90;0.90;;;;;;;;;;10323552;28;20041;-62
2021/06/07 15:53:53;;;;;;;3.85;1.02;;;;;;;;;;10341263;28;20446;-62
2021/06/07 15:58:52;;;;;;;1.83;0.75;;;;;;;;;;10335342;28;20503;-62
2021/06/07 16:03:50;;;;;;;3.35;0.88;;;;;;;;;;10339679;28;20035;-62
2021/06/07 16:08:47;;;;;;;0.45;0.45;;;;;;;;;;10345944;28;20047;-62
2021/06/07 16:13:46;;;;;;;0.98;0.65;;;;;;;;;;10339062;28;20136;-62
2021/06/07 16:18:47;;;;;;;4.18;1.38;;;;;;;;;;10341178;28;20428;-62
2021/06/07 16:23:51;;;;;;;2.85;1.00;;;;;;;;;;10332826;28;20041;-62
2021/06/07 16:28:49;;;;;;;1.42;0.65;;;;;;;;;;10212046;28;20095;-62
2021/06/07 16:33:47;;;;;;;2.03;1.02;;;;;;;;;;10230542;28;20250;-62
2021/06/07 16:38:45;;;;;;;1.45;0.43;;;;;;;;;;10263891;28;20037;-62
2021/06/07 16:43:42;;;;;;;1.45;0.65;;;;;;;;;;10346828;28;20059;-62
2021/06/07 16:48:40;;;;;;;2.97;1.52;;;;;;;;;;10345162;28;20044;-62
2021/06/07 16:53:38;;;;;;;4.32;1.20;;;;;;;;;;10341996;28;20044;-62
2021/06/07 16:58:36;;;;;;;1.30;0.83;;;;;;;;;;10341629;28;20460;-63
2021/06/07 17:03:34;;;;;;;4.45;1.55;;;;;;;;;;10327741;28;20286;-62
2021/06/07 17:08:32;;;;;;;3.35;1.80;;;;;;;;;;10317056;28;20406;-63
2021/06/07 17:13:30;;;;;;;;;;;;;;;;;;10323044;28;20067;-62
2021/06/07 17:18:28;;;;;;;2.35;0.38;;;;;;;;;;10343801;28;21312;-62
2021/06/07 17:23:25;;;;;;;;;;;;;;;;;;10326772;28;20383;-62
2021/06/07 17:28:23;;;;;;;2.88;1.35;;;;;;;;;;10330941;28;19924;-62
2021/06/07 17:33:20;;;;;;;;;;;;;;;;;;10331447;28;20080;-61
2021/06/07 17:38:18;;;;;;;2.33;1.23;;;;;;;;;;10335709;28;19935;-62
2021/06/07 17:43:15;;;;;;;;;;;;;;;;;;10317605;28;20608;-61
2021/06/07 17:48:13;;;;;;;2.17;1.43;;;;;;;;;;10334271;28;19909;-62
2021/06/07 17:53:10;;;;;;;;;;;;;;;;;;10331004;28;20033;-62
2021/06/07 17:58:08;;;;;;;0.73;0.60;;;;;;;;;;10331645;28;19917;-62
2021/06/07 18:03:06;;;;;;;1.15;0.68;;;;;;;;;;10339516;28;20036;-62
2021/06/07 18:08:04;;;;;;;0.90;0.90;;;;;;;;;;10338489;28;20504;-62
2021/06/07 18:13:01;;;;;;;1.23;0.77;;;;;;;;;;10339921;28;20377;-62
2021/06/07 18:17:59;;;;;;;0.75;0.75;;;;;;;;;;10321308;28;20488;-62
2021/06/07 18:22:56;;;;;;;0.97;0.90;;;;;;;;;;10328098;28;20086;-62
2021/06/07 18:27:54;;;;;;;1.20;0.93;;;;;;;;;;10321822;28;20263;-65
2021/06/07 18:32:52;;;;;;;1.97;0.70;;;;;;;;;;10323616;28;20352;-66
2021/06/07 18:37:49;;;;;;;4.25;1.38;;;;;;;;;;10330348;28;20495;-66
2021/06/07 18:42:52;;;;;;;15.85;4.85;;;;;;;;;;10335236;28;20371;-65
2021/06/07 18:47:50;;;;;;;20.92;6.75;;;;;;;;;;10328280;28;20455;-65
2021/06/07 18:52:50;;;;;;;28.15;6.55;;;;;;;;;;10321691;28;20041;-65
2021/06/07 18:57:48;;;;;;;10.32;3.63;;;;;;;;;;10285931;28;20180;-66
2021/06/07 19:02:45;;;;;;;18.90;4.90;;;;;;;;;;10302280;28;20522;-65
2021/06/07 19:07:50;;;;;;;10.88;2.95;;;;;;;;;;10324054;28;20030;-66
2021/06/07 19:12:48;;;;;;;8.98;3.55;;;;;;;;;;10305210;28;20136;-65
2021/06/07 19:17:45;;;;;;;6.70;2.60;;;;;;;;;;10326949;28;20128;-65
2021/06/07 19:22:43;;;;;;;6.73;2.73;;;;;;;;;;10316740;28;20198;-66
2021/06/07 19:27:40;;;;;;;5.38;1.98;;;;;;;;;;10310386;28;20033;-65
2021/06/07 19:32:38;;;;;;;2.85;1.50;;;;;;;;;;10322795;28;20252;-67
2021/06/07 19:37:36;;;;;;;5.17;2.13;;;;;;;;;;10320255;28;20056;-61
2021/06/07 19:42:33;;;;;;;5.83;1.00;;;;;;;;;;10320251;28;20032;-62
2021/06/07 19:47:31;;;;;;;1.73;1.63;;;;;;;;;;10323672;28;20271;-61
2021/06/07 19:52:28;;;;;;;4.00;1.63;;;;;;;;;;10329855;28;20160;-62
2021/06/07 19:57:29;;;;;;;2.20;1.50;;;;;;;;;;10337573;28;20581;-61
2021/06/07 20:02:26;;;;;;;3.42;1.35;;;;;;;;;;10331890;28;20122;-61
2021/06/07 20:07:24;;;;;;;3.57;1.67;;;;;;;;;;10322107;28;20194;-61
2021/06/07 20:12:21;;;;;;;5.00;2.10;;;;;;;;;;10323275;28;20029;-62
2021/06/07 20:17:18;;;;;;;4.80;1.77;;;;;;;;;;10335885;28;20151;-62
2021/06/07 20:22:16;;;;;;;4.03;2.03;;;;;;;;;;10336272;28;20109;-62
2021/06/07 20:27:14;;;;;;;2.20;1.67;;;;;;;;;;10331300;28;20187;-62
2021/06/07 20:32:11;;;;;;;0.93;0.68;;;;;;;;;;10337120;28;20025;-62
2021/06/07 20:37:08;;;;;;;4.90;1.50;;;;;;;;;;10334754;28;20037;-61
2021/06/07 20:42:06;;;;;;;4.43;4.03;;;;;;;;;;10333826;28;20476;-62
2021/06/07 20:47:04;;;;;;;7.07;4.87;;;;;;;;;;10326455;28;20079;-62
2021/06/07 20:52:01;;;;;;;4.67;2.80;;;;;;;;;;10330179;28;20538;-62
2021/06/07 20:56:59;;;;;;;5.95;4.00;;;;;;;;;;10329623;28;20167;-62
2021/06/07 21:01:56;;;;;;;6.90;2.40;;;;;;;;;;10322195;28;20535;-62
2021/06/07 21:06:54;;;;;;;3.67;3.20;;;;;;;;;;10322422;28;20028;-61
2021/06/07 21:11:51;;;;;;;6.93;4.57;;;;;;;;;;10340184;28;20036;-61
2021/06/07 21:16:49;;;;;;;6.47;4.10;;;;;;;;;;10329328;28;20017;-61
2021/06/07 21:21:46;;;;;;;6.90;4.80;;;;;;;;;;10328799;28;20028;-61
2021/06/07 21:26:43;;;;;;;7.97;4.33;;;;;;;;;;10331649;28;20433;-61
2021/06/07 21:31:41;;;;;;;4.70;3.30;;;;;;;;;;10339904;28;20021;-61
2021/06/07 21:36:38;;;;;;;5.40;3.90;;;;;;;;;;10321550;28;20064;-60
2021/06/07 21:41:36;;;;;;;4.93;4.20;;;;;;;;;;10330405;28;20037;-61
2021/06/07 21:46:34;;;;;;;6.80;1.13;;;;;;;;;;10334496;28;20040;-61
2021/06/07 21:51:32;;;;;;;10.02;4.85;;;;;;;;;;10332019;28;20037;-61
2021/06/07 21:56:30;;;;;;;5.23;2.50;;;;;;;;;;10310943;28;20402;-61
2021/06/07 22:01:27;;;;;;;6.77;3.43;;;;;;;;;;10326961;28;20241;-62
2021/06/07 22:06:25;;;;;;;2.13;1.60;;;;;;;;;;10321497;28;20359;-62
2021/06/07 22:11:22;;;;;;;3.17;2.67;;;;;;;;;;10326512;28;20033;-61
2021/06/07 22:16:19;;;;;;;10.07;5.47;;;;;;;;;;10329284;28;20021;-60
2021/06/07 22:21:17;;;;;;;8.50;6.27;;;;;;;;;;10322254;28;20610;-61
2021/06/07 22:26:16;;;;;;;9.67;6.20;;;;;;;;;;10333562;28;20210;-61
2021/06/07 22:31:13;;;;;;;7.35;4.55;;;;;;;;;;10322279;28;20033;-61
2021/06/07 22:36:11;;;;;;;6.33;4.93;;;;;;;;;;10298937;28;20044;-61
2021/06/07 22:41:09;;;;;;;6.03;4.47;;;;;;;;;;10315187;28;20361;-62
2021/06/07 22:46:06;;;;;;;8.33;3.97;;;;;;;;;;10326882;28;20320;-61
2021/06/07 22:51:04;;;;;;;7.53;4.40;;;;;;;;;;10325323;28;20025;-61
2021/06/07 22:56:01;;;;;;;9.50;5.67;;;;;;;;;;10331415;28;20067;-61
2021/06/07 23:00:59;;;;;;;8.10;4.17;;;;;;;;;;10326601;28;20391;-61
2021/06/07 23:05:56;;;;;;;5.10;3.83;;;;;;;;;;10341108;28;20052;-61
2021/06/07 23:10:55;;;;;;;6.73;3.30;;;;;;;;;;10337495;28;20035;-61
2021/06/07 23:15:52;;;;;;;6.13;3.35;;;;;;;;;;10337438;28;20772;-61
2021/06/07 23:20:50;;;;;;;7.50;3.77;;;;;;;;;;10325779;28;20510;-62
2021/06/07 23:25:47;;;;;;;8.07;3.97;;;;;;;;;;10328907;28;20449;-61
2021/06/07 23:30:44;;;;;;;6.70;3.67;;;;;;;;;;10342985;28;20131;-62
2021/06/07 23:35:42;;;;;;;8.30;4.37;;;;;;;;;;10319312;28;20080;-62
2021/06/07 23:40:39;;;;;;;4.93;3.50;;;;;;;;;;10342497;28;20037;-62
2021/06/07 23:45:37;;;;;;;6.83;4.20;;;;;;;;;;10349964;28;20094;-62
2021/06/07 23:50:35;;;;;;;8.50;5.40;;;;;;;;;;10338158;28;20441;-61
2021/06/07 23:55:32;;;;;;;8.17;4.93;;;;;;;;;;10311451;28;20119;-62
